Terminal Aerodrome Forecast
Issued by NWS Charleston, SC

Home | Current Version | Previous Version | Text Only | Print | Product List | Glossary On
Versions: 1 2 3 4 5 6 7 8 9 10 11 12 13 14 15 16
000
FTUS42 KCHS 230500
TAFCHS
TAF
KCHS 230535Z 2306/2406 04006KT P6SM FEW007 BKN060
      TEMPO 2308/2312 6SM -SHRA SCT005 BKN035
     FM231200 05010KT 6SM -SHRA SCT020 OVC035
     FM231700 04012G18KT P6SM VCSH SCT012 OVC025
     FM240000 02013G19KT P6SM SCT015 BKN035=

USA.gov is the U.S. government's official web portal to all federal, state and local government web resources and services.